createdAt,value
2022-12-18T00:01:51.317Z,8.40
2022-12-18T00:04:22.440Z,8.40
2022-12-18T00:06:49.786Z,8.50
2022-12-18T00:09:16.852Z,8.50
2022-12-18T00:11:43.801Z,8.30
2022-12-18T00:14:11.425Z,8.30
2022-12-18T00:16:38.452Z,8.30
2022-12-18T00:19:05.574Z,8.40
2022-12-18T00:21:34.254Z,8.40
2022-12-18T00:24:01.360Z,8.40
2022-12-18T00:26:29.498Z,8.40
2022-12-18T00:28:59.592Z,8.30
2022-12-18T00:31:27.079Z,8.30
2022-12-18T00:33:55.287Z,8.20
2022-12-18T00:36:26.236Z,8.20
2022-12-18T00:38:54.044Z,8.20
2022-12-18T00:41:39.892Z,8.20
2022-12-18T00:44:07.041Z,8.20
2022-12-18T00:46:34.010Z,8.20
2022-12-18T00:49:00.845Z,8.20
2022-12-18T00:51:27.905Z,8.10
2022-12-18T00:53:54.848Z,8.20
2022-12-18T00:56:21.808Z,8.20
2022-12-18T00:58:48.787Z,8.20
2022-12-18T01:01:17.420Z,8.20
2022-12-18T01:03:46.293Z,8.10
2022-12-18T01:06:13.920Z,8.10
2022-12-18T01:08:40.920Z,8.10
2022-12-18T01:11:08.647Z,8.10
2022-12-18T01:13:35.996Z,8.20
2022-12-18T01:16:03.175Z,8.20
2022-12-18T01:18:30.146Z,8.20
2022-12-18T01:20:57.006Z,8.20
2022-12-18T01:23:24.035Z,8.20
2022-12-18T01:25:50.922Z,8.20
2022-12-18T01:28:17.957Z,8.00
2022-12-18T01:30:44.960Z,8.00
2022-12-18T01:33:11.926Z,8.00
2022-12-18T01:35:44.315Z,8.00
2022-12-18T01:38:11.307Z,8.10
2022-12-18T01:40:38.862Z,8.10
2022-12-18T01:43:06.038Z,8.10
2022-12-18T01:45:33.132Z,8.10
2022-12-18T01:48:01.019Z,8.00
2022-12-18T01:50:35.437Z,8.00
2022-12-18T01:53:18.870Z,8.00
2022-12-18T01:55:45.952Z,7.90
2022-12-18T01:58:12.920Z,7.80
2022-12-18T02:00:39.947Z,7.80
2022-12-18T02:03:06.919Z,7.80
2022-12-18T02:05:42.872Z,7.70
2022-12-18T02:08:25.112Z,7.80
2022-12-18T02:10:58.573Z,7.90
2022-12-18T02:13:29.407Z,7.80
2022-12-18T02:16:01.896Z,7.80
2022-12-18T02:18:29.742Z,7.80
2022-12-18T02:20:59.267Z,7.80
2022-12-18T02:23:37.084Z,7.80
2022-12-18T02:26:18.013Z,7.60
2022-12-18T02:28:46.784Z,7.60
2022-12-18T02:31:15.501Z,7.60
2022-12-18T02:33:42.639Z,7.60
2022-12-18T02:36:09.534Z,7.70
2022-12-18T02:38:36.439Z,7.70
2022-12-18T02:41:03.389Z,7.80
2022-12-18T02:43:30.552Z,7.70
2022-12-18T02:45:58.787Z,7.80
2022-12-18T02:48:27.070Z,7.80
2022-12-18T02:51:10.256Z,7.60
2022-12-18T02:53:42.587Z,7.40
2022-12-18T02:56:20.756Z,7.40
2022-12-18T02:58:57.223Z,7.50
2022-12-18T03:01:29.869Z,7.60
2022-12-18T03:03:58.709Z,7.60
2022-12-18T03:06:30.155Z,7.70
2022-12-18T03:09:01.283Z,7.70
2022-12-18T03:11:47.439Z,7.60
2022-12-18T03:14:14.367Z,7.60
2022-12-18T03:16:41.268Z,7.60
2022-12-18T03:19:10.345Z,7.70
2022-12-18T03:21:39.558Z,7.70
2022-12-18T03:24:08.658Z,7.80
2022-12-18T03:26:36.710Z,7.80
2022-12-18T03:29:05.184Z,7.80
2022-12-18T03:31:32.000Z,7.80
2022-12-18T03:33:59.726Z,7.80
2022-12-18T03:36:26.819Z,7.80
2022-12-18T03:38:53.687Z,7.80
2022-12-18T03:41:21.901Z,7.80
2022-12-18T03:43:57.893Z,7.80
2022-12-18T03:46:27.853Z,7.80
2022-12-18T03:48:58.018Z,7.90
2022-12-18T03:51:27.133Z,7.90
2022-12-18T03:53:55.821Z,7.90
2022-12-18T03:56:22.760Z,7.90
2022-12-18T03:58:49.613Z,7.90
2022-12-18T04:01:16.655Z,7.80
2022-12-18T04:03:44.228Z,7.80
2022-12-18T04:06:11.518Z,7.70
2022-12-18T04:08:39.697Z,7.70
2022-12-18T04:11:06.649Z,7.80
2022-12-18T04:13:34.632Z,7.70
2022-12-18T04:16:01.763Z,7.70
2022-12-18T04:18:28.667Z,7.80
2022-12-18T04:20:55.606Z,7.80
2022-12-18T04:23:22.740Z,7.90
2022-12-18T04:25:50.175Z,7.90
2022-12-18T04:28:17.091Z,7.90
2022-12-18T04:30:43.990Z,7.90
2022-12-18T04:33:11.930Z,7.80
2022-12-18T04:35:38.917Z,7.50
2022-12-18T04:38:06.786Z,7.30
2022-12-18T04:40:33.688Z,7.20
2022-12-18T04:43:00.627Z,7.30
2022-12-18T04:45:27.515Z,7.30
2022-12-18T04:47:54.448Z,7.30
2022-12-18T04:50:21.341Z,7.40
2022-12-18T04:52:48.235Z,7.50
2022-12-18T04:55:18.615Z,7.60
2022-12-18T04:57:45.545Z,7.70
2022-12-18T05:00:12.731Z,7.70
2022-12-18T05:02:39.894Z,7.80
2022-12-18T05:05:07.513Z,7.70
2022-12-18T05:07:34.451Z,7.70
2022-12-18T05:10:01.337Z,7.60
2022-12-18T05:12:28.374Z,7.60
2022-12-18T05:14:55.325Z,7.60
2022-12-18T05:17:22.237Z,7.60
2022-12-18T05:19:49.193Z,7.70
2022-12-18T05:22:16.645Z,7.60
2022-12-18T05:24:43.533Z,7.50
2022-12-18T05:27:10.490Z,7.30
2022-12-18T05:29:37.406Z,7.30
2022-12-18T05:32:04.459Z,7.30
2022-12-18T05:34:31.283Z,7.40
2022-12-18T05:36:58.249Z,7.50
2022-12-18T05:39:25.195Z,7.50
2022-12-18T05:41:52.024Z,7.50
2022-12-18T05:44:19.082Z,7.60
2022-12-18T05:46:46.028Z,7.60
2022-12-18T05:49:13.002Z,7.40
2022-12-18T05:51:39.906Z,7.20
2022-12-18T05:54:08.628Z,7.10
2022-12-18T05:56:35.574Z,7.10
2022-12-18T05:59:02.518Z,7.10
2022-12-18T06:01:29.928Z,7.20
2022-12-18T06:03:58.069Z,7.30
2022-12-18T06:06:25.715Z,7.20
2022-12-18T06:08:52.615Z,7.20
2022-12-18T06:11:20.669Z,7.20
2022-12-18T06:13:47.819Z,7.10
2022-12-18T06:16:14.941Z,7.10
2022-12-18T06:18:41.881Z,7.20
2022-12-18T06:21:08.919Z,7.20
2022-12-18T06:23:36.336Z,7.20
2022-12-18T06:26:07.224Z,7.20
2022-12-18T06:28:34.212Z,7.20
2022-12-18T06:31:01.453Z,7.10
2022-12-18T06:33:29.278Z,7.00
2022-12-18T06:36:01.169Z,7.00
2022-12-18T06:38:28.395Z,7.10
2022-12-18T06:40:55.547Z,7.10
2022-12-18T06:43:24.493Z,7.00
2022-12-18T06:45:53.923Z,6.90
2022-12-18T06:48:21.174Z,7.00
2022-12-18T06:50:48.133Z,7.10
2022-12-18T06:53:15.276Z,7.00
2022-12-18T06:55:42.223Z,7.10
2022-12-18T06:58:09.132Z,7.10
2022-12-18T07:00:38.260Z,7.20
2022-12-18T07:03:05.471Z,7.30
2022-12-18T07:05:32.424Z,7.20
2022-12-18T07:07:59.701Z,7.20
2022-12-18T07:10:26.701Z,7.10
2022-12-18T07:12:53.713Z,7.10
2022-12-18T07:15:20.624Z,7.10
2022-12-18T07:17:47.656Z,7.20
2022-12-18T07:20:15.421Z,7.20
2022-12-18T07:22:42.332Z,7.20
2022-12-18T07:25:11.810Z,7.20
2022-12-18T07:27:38.728Z,7.30
2022-12-18T07:30:06.371Z,7.40
2022-12-18T07:32:33.344Z,7.40
2022-12-18T07:35:00.202Z,7.40
2022-12-18T07:37:27.140Z,7.50
2022-12-18T07:39:54.058Z,7.50
2022-12-18T07:42:33.113Z,7.50
2022-12-18T07:45:00.770Z,7.50
2022-12-18T07:47:28.158Z,7.50
2022-12-18T07:49:56.435Z,7.60
2022-12-18T07:52:26.230Z,7.50
2022-12-18T07:54:53.433Z,7.50
2022-12-18T07:57:48.379Z,7.40
2022-12-18T08:00:07.686Z,7.30
2022-12-18T08:02:34.795Z,7.30
2022-12-18T08:05:02.180Z,7.20
2022-12-18T08:07:29.412Z,7.20
2022-12-18T08:09:56.362Z,7.20
2022-12-18T08:12:23.453Z,7.40
2022-12-18T08:14:50.337Z,8.40
2022-12-18T08:17:17.222Z,9.40
2022-12-18T08:19:44.197Z,11.00
2022-12-18T08:22:11.060Z,12.80
2022-12-18T08:24:38.378Z,14.50
2022-12-18T08:29:52.351Z,17.20
2022-12-18T08:32:19.310Z,18.40
2022-12-18T08:34:46.254Z,19.00
2022-12-18T08:37:13.229Z,19.30
2022-12-18T08:39:40.161Z,19.60
2022-12-18T08:42:25.721Z,19.60
2022-12-18T08:44:52.738Z,19.70
2022-12-18T08:47:19.693Z,20.10
2022-12-18T08:49:46.688Z,20.60
2022-12-18T08:52:13.760Z,21.20
2022-12-18T08:54:40.803Z,21.70
2022-12-18T08:57:08.058Z,22.10
2022-12-18T08:59:34.972Z,22.50
2022-12-18T09:02:02.058Z,22.90
2022-12-18T09:04:29.174Z,23.10
2022-12-18T09:06:56.415Z,23.20
2022-12-18T09:09:23.363Z,23.60
2022-12-18T09:11:50.356Z,23.80
2022-12-18T09:14:17.262Z,23.70
2022-12-18T09:16:44.347Z,23.80
2022-12-18T09:19:12.696Z,24.20
2022-12-18T09:21:47.757Z,24.50
2022-12-18T09:24:15.435Z,24.70
2022-12-18T09:26:43.485Z,24.80
2022-12-18T09:29:13.894Z,24.90
2022-12-18T09:31:41.922Z,25.20
2022-12-18T09:34:08.931Z,25.40
2022-12-18T09:36:35.946Z,25.70
2022-12-18T09:39:07.819Z,25.70
2022-12-18T09:41:45.222Z,25.30
2022-12-18T09:44:20.587Z,25.10
2022-12-18T09:46:50.826Z,24.90
2022-12-18T09:49:19.089Z,25.00
2022-12-18T09:51:54.149Z,25.50
2022-12-18T09:54:25.267Z,26.10
2022-12-18T09:56:53.172Z,26.60
2022-12-18T09:59:25.666Z,25.90
2022-12-18T10:01:52.752Z,24.00
2022-12-18T10:04:20.133Z,21.70
2022-12-18T10:06:49.276Z,20.10
2022-12-18T10:09:28.888Z,18.60
2022-12-18T10:12:14.520Z,17.30
2022-12-18T10:14:43.621Z,16.10
2022-12-18T10:17:29.460Z,15.40
2022-12-18T10:20:15.146Z,14.90
2022-12-18T10:22:42.089Z,14.30
2022-12-18T10:25:27.972Z,13.70
2022-12-18T10:27:56.692Z,13.10
2022-12-18T10:30:24.151Z,12.90
2022-12-18T10:32:51.157Z,12.40
2022-12-18T10:35:22.173Z,12.30
2022-12-18T10:38:07.671Z,12.40
2022-12-18T10:40:48.671Z,12.50
2022-12-18T10:43:16.431Z,12.50
2022-12-18T10:45:45.821Z,12.90
2022-12-18T10:48:19.435Z,13.60
2022-12-18T10:51:10.445Z,14.50
2022-12-18T10:53:36.686Z,15.60
2022-12-18T10:56:04.462Z,15.50
2022-12-18T10:58:38.704Z,15.50
2022-12-18T11:01:05.692Z,15.40
2022-12-18T11:03:34.196Z,16.20
2022-12-18T11:06:16.576Z,18.10
2022-12-18T11:08:46.021Z,20.40
2022-12-18T11:11:31.115Z,20.20
2022-12-18T11:14:05.392Z,18.60
2022-12-18T11:19:41.061Z,15.30
2022-12-18T11:22:29.013Z,14.20
2022-12-18T11:25:29.479Z,13.60
2022-12-18T11:27:43.155Z,13.30
2022-12-18T11:30:14.608Z,13.30
2022-12-18T11:32:42.496Z,13.20
2022-12-18T11:35:14.886Z,13.10
2022-12-18T11:37:43.151Z,12.80
2022-12-18T11:40:18.106Z,12.50
2022-12-18T11:43:03.508Z,12.30
2022-12-18T11:45:33.004Z,12.30
2022-12-18T11:48:18.576Z,12.10
2022-12-18T11:50:52.598Z,11.80
2022-12-18T11:53:21.636Z,11.80
2022-12-18T11:55:51.119Z,12.00
2022-12-18T11:58:31.377Z,11.90
2022-12-18T12:01:18.158Z,11.90
2022-12-18T12:03:57.800Z,11.70
2022-12-18T12:06:41.108Z,11.50
2022-12-18T12:09:15.324Z,11.50
2022-12-18T12:12:11.949Z,12.20
2022-12-18T12:14:51.624Z,14.10
2022-12-18T12:17:27.509Z,16.50
2022-12-18T12:20:00.332Z,18.30
2022-12-18T12:22:50.199Z,19.80
2022-12-18T12:25:23.406Z,20.90
2022-12-18T12:28:03.047Z,21.90
2022-12-18T12:30:46.685Z,22.20
2022-12-18T12:33:14.311Z,23.00
2022-12-18T12:35:43.947Z,23.40
2022-12-18T12:38:24.609Z,23.90
2022-12-18T12:41:02.407Z,24.40
2022-12-18T12:43:47.688Z,24.80
2022-12-18T12:46:20.060Z,24.90
2022-12-18T12:48:49.042Z,24.80
2022-12-18T12:51:22.114Z,24.80
2022-12-18T12:53:49.313Z,25.00
2022-12-18T12:56:17.080Z,24.60
2022-12-18T12:58:49.069Z,24.30
2022-12-18T13:01:25.468Z,24.10
2022-12-18T13:04:02.837Z,24.00
2022-12-18T13:06:59.850Z,24.30
2022-12-18T13:09:31.075Z,24.40
2022-12-18T13:12:23.335Z,24.20
2022-12-18T13:14:50.384Z,24.20
2022-12-18T13:17:21.067Z,24.10
2022-12-18T13:19:51.798Z,24.00
2022-12-18T13:22:25.209Z,23.70
2022-12-18T13:27:45.448Z,22.10
2022-12-18T13:30:30.855Z,21.50
2022-12-18T13:33:16.300Z,21.30
2022-12-18T13:35:52.377Z,21.40
2022-12-18T13:38:23.865Z,21.50
2022-12-18T13:40:50.712Z,21.50
2022-12-18T13:43:20.652Z,21.70
2022-12-18T13:46:00.934Z,21.70
2022-12-18T13:48:28.352Z,21.60
2022-12-18T13:50:59.991Z,21.30
2022-12-18T13:54:05.545Z,21.20
2022-12-18T13:56:34.136Z,20.90
2022-12-18T13:59:08.154Z,20.20
2022-12-18T14:01:35.388Z,19.20
2022-12-18T14:04:20.971Z,18.10
2022-12-18T14:06:48.387Z,17.30
2022-12-18T14:09:41.165Z,16.50
2022-12-18T14:12:26.496Z,16.00
2022-12-18T14:14:55.108Z,15.60
2022-12-18T14:17:22.453Z,15.20
2022-12-18T14:19:50.653Z,14.80
2022-12-18T14:22:20.692Z,14.60
2022-12-18T14:24:47.912Z,14.20
2022-12-18T14:27:24.641Z,13.90
2022-12-18T14:29:51.877Z,13.70
2022-12-18T14:32:19.947Z,13.60
2022-12-18T14:34:49.805Z,13.40
2022-12-18T14:37:17.851Z,13.10
2022-12-18T14:39:59.073Z,12.90
2022-12-18T14:42:29.868Z,12.80
2022-12-18T14:45:15.686Z,12.70
2022-12-18T14:47:44.397Z,12.50
2022-12-18T14:50:14.971Z,12.30
2022-12-18T14:52:42.196Z,12.10
2022-12-18T14:55:16.415Z,12.00
2022-12-18T14:57:45.552Z,11.70
2022-12-18T15:00:16.658Z,11.60
2022-12-18T15:02:43.825Z,11.50
2022-12-18T15:05:13.925Z,11.50
2022-12-18T15:07:51.027Z,11.50
2022-12-18T15:10:19.097Z,11.20
2022-12-18T15:13:06.699Z,11.00
2022-12-18T15:15:43.602Z,10.90
2022-12-18T15:18:14.265Z,10.80
2022-12-18T15:20:43.050Z,10.70
2022-12-18T15:23:16.906Z,10.40
2022-12-18T15:25:44.658Z,10.20
2022-12-18T15:28:37.858Z,10.10
2022-12-18T15:31:07.418Z,10.20
2022-12-18T15:33:35.370Z,10.20
2022-12-18T15:36:03.726Z,10.20
2022-12-18T15:38:30.675Z,10.20
2022-12-18T15:40:57.764Z,10.10
2022-12-18T15:43:35.010Z,9.90
2022-12-18T15:46:06.262Z,9.80
2022-12-18T15:48:36.317Z,9.70
2022-12-18T15:51:03.271Z,9.70
2022-12-18T15:53:31.131Z,9.70
2022-12-18T15:56:16.719Z,9.60
2022-12-18T15:58:43.705Z,9.30
2022-12-18T16:01:10.832Z,8.80
2022-12-18T16:03:38.133Z,8.50
2022-12-18T16:06:05.355Z,8.40
2022-12-18T16:08:33.736Z,8.40
2022-12-18T16:11:00.768Z,8.50
2022-12-18T16:13:27.740Z,8.60
2022-12-18T16:15:55.379Z,8.70
2022-12-18T16:18:22.680Z,8.60
2022-12-18T16:20:49.788Z,8.40
2022-12-18T16:23:16.942Z,8.40
2022-12-18T16:25:44.049Z,8.40
2022-12-18T16:28:11.088Z,8.50
2022-12-18T16:30:43.050Z,8.50
2022-12-18T16:33:10.915Z,8.40
2022-12-18T16:35:38.335Z,8.30
2022-12-18T16:38:05.364Z,8.20
2022-12-18T16:40:32.739Z,8.20
2022-12-18T16:42:59.589Z,8.10
2022-12-18T16:45:26.670Z,8.10
2022-12-18T16:47:53.598Z,8.10
2022-12-18T16:50:23.882Z,8.10
2022-12-18T16:52:51.088Z,8.10
2022-12-18T16:55:18.018Z,8.00
2022-12-18T16:57:45.047Z,7.90
2022-12-18T17:00:12.624Z,7.90
2022-12-18T17:02:40.099Z,7.90
2022-12-18T17:05:11.948Z,7.80
2022-12-18T17:07:39.047Z,7.80
2022-12-18T17:10:06.173Z,7.70
2022-12-18T17:12:33.248Z,7.70
2022-12-18T17:15:00.319Z,7.60
2022-12-18T17:17:27.325Z,7.50
2022-12-18T17:19:54.623Z,7.40
2022-12-18T17:22:23.485Z,7.40
2022-12-18T17:24:51.448Z,7.40
2022-12-18T17:27:18.570Z,7.40
2022-12-18T17:29:48.289Z,7.40
2022-12-18T17:32:16.219Z,7.40
2022-12-18T17:34:44.070Z,7.40
2022-12-18T17:37:11.524Z,7.30
2022-12-18T17:39:39.473Z,7.30
2022-12-18T17:42:07.253Z,7.30
2022-12-18T17:44:36.219Z,7.20
2022-12-18T17:47:03.495Z,7.20
2022-12-18T17:49:31.245Z,7.20
2022-12-18T17:51:58.220Z,7.20
2022-12-18T17:54:25.367Z,7.10
2022-12-18T17:56:52.844Z,7.00
2022-12-18T17:59:20.095Z,6.90
2022-12-18T18:01:47.264Z,6.90
2022-12-18T18:04:14.519Z,6.90
2022-12-18T18:06:41.546Z,6.90
2022-12-18T18:09:16.122Z,6.90
2022-12-18T18:12:03.079Z,6.90
2022-12-18T18:14:30.125Z,7.00
2022-12-18T18:16:59.206Z,7.00
2022-12-18T18:19:31.583Z,7.00
2022-12-18T18:21:58.534Z,7.00
2022-12-18T18:24:26.093Z,7.10
2022-12-18T18:26:53.206Z,7.20
2022-12-18T18:29:24.200Z,7.20
2022-12-18T18:31:53.840Z,7.00
2022-12-18T18:34:21.901Z,6.90
2022-12-18T18:36:49.147Z,6.80
2022-12-18T18:39:16.206Z,6.80
2022-12-18T18:41:47.184Z,6.80
2022-12-18T18:44:15.879Z,6.90
2022-12-18T18:46:42.849Z,6.90
2022-12-18T18:49:10.138Z,6.80
2022-12-18T18:51:37.077Z,6.80
2022-12-18T18:54:04.451Z,6.80
2022-12-18T18:56:56.257Z,6.70
2022-12-18T18:59:19.198Z,6.70
2022-12-18T19:01:48.808Z,6.60
2022-12-18T19:04:16.033Z,6.50
2022-12-18T19:06:46.806Z,6.40
2022-12-18T19:09:14.170Z,6.30
2022-12-18T19:11:59.706Z,6.20
2022-12-18T19:14:26.793Z,6.20
2022-12-18T19:16:54.471Z,6.30
2022-12-18T19:19:22.800Z,6.30
2022-12-18T19:21:50.339Z,6.20
2022-12-18T19:24:19.113Z,6.20
2022-12-18T19:26:46.174Z,6.20
2022-12-18T19:29:14.876Z,6.20
2022-12-18T19:31:42.188Z,6.20
2022-12-18T19:34:09.719Z,6.20
2022-12-18T19:36:37.427Z,6.10
2022-12-18T19:39:09.412Z,6.10
2022-12-18T19:41:36.375Z,6.20
2022-12-18T19:44:08.097Z,6.20
2022-12-18T19:46:35.505Z,6.20
2022-12-18T19:49:02.515Z,6.10
2022-12-18T19:51:30.211Z,6.00
2022-12-18T19:53:59.067Z,5.90
2022-12-18T19:56:27.533Z,5.80
2022-12-18T19:58:54.460Z,5.60
2022-12-18T20:01:22.437Z,5.50
2022-12-18T20:03:52.275Z,5.40
2022-12-18T20:06:25.878Z,5.40
2022-12-18T20:08:57.637Z,5.30
2022-12-18T20:11:27.417Z,5.40
2022-12-18T20:13:54.318Z,5.40
2022-12-18T20:16:21.206Z,5.40
2022-12-18T20:18:48.302Z,5.30
2022-12-18T20:21:16.162Z,5.30
2022-12-18T20:23:43.603Z,5.10
2022-12-18T20:26:11.087Z,5.10
2022-12-18T20:28:40.095Z,5.10
2022-12-18T20:31:10.387Z,5.10
2022-12-18T20:33:37.778Z,5.20
2022-12-18T20:36:06.402Z,5.30
2022-12-18T20:38:34.753Z,5.40
2022-12-18T20:41:02.639Z,5.40
2022-12-18T20:43:29.782Z,5.40
2022-12-18T20:46:03.534Z,5.40
2022-12-18T20:48:30.639Z,5.40
2022-12-18T20:51:02.578Z,5.30
2022-12-18T20:53:31.142Z,5.30
2022-12-18T20:55:58.179Z,5.20
2022-12-18T20:58:25.106Z,5.20
2022-12-18T21:01:03.574Z,5.10
2022-12-18T21:03:30.651Z,5.00
2022-12-18T21:05:57.631Z,5.00
2022-12-18T21:08:24.505Z,5.00
2022-12-18T21:10:51.362Z,5.00
2022-12-18T21:13:21.050Z,4.90
2022-12-18T21:15:48.108Z,4.90
2022-12-18T21:18:15.171Z,4.90
2022-12-18T21:20:42.170Z,4.90
2022-12-18T21:23:16.633Z,4.90
2022-12-18T21:25:44.565Z,4.90
2022-12-18T21:28:13.535Z,4.90
2022-12-18T21:30:41.808Z,4.90
2022-12-18T21:33:08.881Z,4.90
2022-12-18T21:35:36.321Z,4.80
2022-12-18T21:38:05.713Z,4.80
2022-12-18T21:40:32.985Z,4.90
2022-12-18T21:43:18.760Z,4.80
2022-12-18T21:45:45.794Z,4.80
2022-12-18T21:48:12.853Z,4.90
2022-12-18T21:50:39.782Z,4.90
2022-12-18T21:53:06.779Z,4.80
2022-12-18T21:55:33.976Z,4.60
2022-12-18T21:58:01.154Z,4.50
2022-12-18T22:00:29.036Z,4.40
2022-12-18T22:03:17.547Z,4.20
2022-12-18T22:05:43.176Z,4.20
2022-12-18T22:08:10.387Z,4.20
2022-12-18T22:10:37.771Z,4.20
2022-12-18T22:13:05.137Z,3.80
2022-12-18T22:15:32.422Z,3.70
2022-12-18T22:18:00.658Z,3.70
2022-12-18T22:20:28.352Z,3.80
2022-12-18T22:22:57.384Z,4.00
2022-12-18T22:25:24.402Z,4.10
2022-12-18T22:28:10.750Z,4.20
2022-12-18T22:30:37.656Z,4.20
2022-12-18T22:33:04.600Z,4.30
2022-12-18T22:35:31.635Z,4.40
2022-12-18T22:37:59.187Z,4.40
2022-12-18T22:40:26.463Z,4.50
2022-12-18T22:42:53.775Z,4.40
2022-12-18T22:45:23.529Z,4.40
2022-12-18T22:47:50.774Z,4.40
2022-12-18T22:50:17.708Z,4.30
2022-12-18T22:52:44.852Z,4.40
2022-12-18T22:55:12.030Z,4.30
2022-12-18T22:57:40.632Z,4.30
2022-12-18T23:00:11.812Z,4.30
2022-12-18T23:02:38.856Z,4.20
2022-12-18T23:05:06.227Z,4.20
2022-12-18T23:07:33.739Z,4.30
2022-12-18T23:10:01.234Z,4.30
2022-12-18T23:12:28.297Z,4.30
2022-12-18T23:14:55.306Z,4.30
2022-12-18T23:17:22.303Z,4.20
2022-12-18T23:19:49.566Z,4.20
2022-12-18T23:22:16.968Z,4.20
2022-12-18T23:24:43.856Z,4.20
2022-12-18T23:27:11.959Z,4.10
2022-12-18T23:29:39.905Z,4.10
2022-12-18T23:32:06.979Z,4.10
2022-12-18T23:34:33.897Z,4.00
2022-12-18T23:37:01.410Z,4.00
2022-12-18T23:39:30.281Z,4.00
2022-12-18T23:41:58.012Z,4.00
2022-12-18T23:44:25.104Z,4.00
2022-12-18T23:46:52.088Z,3.90
2022-12-18T23:49:19.017Z,3.90
2022-12-18T23:51:45.993Z,3.90
2022-12-18T23:54:12.952Z,3.90
2022-12-18T23:56:40.001Z,3.90
2022-12-18T23:59:06.947Z,3.80
